Meteo Giornale » Osservazioni meteo Francia » Annecy-Meythet

ore: 07:00 - Osservazioni Meteo Annecy-Meythet
Lat. 45° 55' N Lon. 6° 5' E Alt. 463 metri s.l.m.

coperto Europe/Paris

13 °C

Coperto

Temp. 24 Ore

12 °C

25 °C

Nord

0 Km/h

Dew point 12 °C

Umidità 93 %

Visibilità  10 Km

Il sole sorge alle ore 07:22

Il sole tramonta alle ore 19:33

Data e Ora Cielo e Fenomeni T °C DP °C Um. % Pres. hPa Vis. km Vento km/h
Oggi h: 07:00 coperto Coperto 13 12 93 1018 10 N 0
Oggi h: 06:00 molto_nuvoloso Molto Nuvoloso 12 12 100 1018 10 N 3.7
Oggi h: 05:30 molto_nuvoloso Molto Nuvoloso 12 12 100 1018 10 N 5.5
Oggi h: 05:00 molto_nuvoloso Molto Nuvoloso 13 12 93 1018 10 N 0
Oggi h: 04:30 sereno Sereno 13 12 93 1017 10 N 0
Oggi h: 04:00 sereno Sereno 13 13 100 1017 10 N 0
Oggi h: 03:30 coperto Coperto 13 13 100 1018 10 N 0
Oggi h: 03:00 coperto Coperto 13 12 93 1018 10 N 1.8
Oggi h: 02:30 coperto Coperto 13 12 93 1018 10 N 1.8
Oggi h: 02:00 coperto Coperto 14 13 93 1018 10 O/NO 9.3
Oggi h: 01:30 coperto_pioggia Pioggia Debole 14 13 93 1017 10 N/NE 7.4
Oggi h: 01:00 coperto_pioggia Pioggia Debole 14 13 93 1017 10 E 7.4
Oggi h: 00:30 coperto_pioggia Pioggia 13 13 100 1018 7 SE 7.4
Ieri h: 23:30 coperto_pioggia Pioggia 14 12 87 1017 7 N 3.7
Ieri h: 23:00 coperto_pioggia Pioggia 14 12 87 1016 7 N 5.5
Ieri h: 22:30 coperto_pioggia Pioggia 14 12 87 1016 8 O 14.8
Ieri h: 22:00 coperto_pioggia Pioggia Foschia 14 12 87 1015 5 O/SO 11.1
Ieri h: 21:30 coperto_pioggia Pioggia Debole 14 12 87 1014 6 O/NO 18.5
Ieri h: 21:00 coperto_pioggia Pioggia Foschia 15 13 87 1012 3 O/NO 24
Ieri h: 20:30 coperto Coperto 17 13 77 1012 10 NO 20.3
Ieri h: 20:00 coperto Coperto 19 18 93 1012 10 E/NE 9.3
Ieri h: 19:30 coperto_pioggia Pioggia Debole 18 17 93 1012 10 E 9.3
Ieri h: 19:00 molto_nuvoloso Molto Nuvoloso 18 17 93 1012 10 N 5.5
Ieri h: 18:30 coperto_pioggia Pioggia Foschia 20 16 77 1012 1 O 14.8
Ieri h: 18:00 coperto Coperto 22 16 68 1011 10 N 5.5
Ieri h: 17:30 coperto Coperto 22 15 64 1011 10 N 5.5
Ieri h: 17:00 coperto Coperto 22 15 64 1011 10 N 5.5
Ieri h: 16:30 coperto Coperto 22 15 64 1011 10 SO 20.3
Ieri h: 16:00 sereno Sereno 24 13 50 1011 10 S/SO 14.8
Ieri h: 15:30 molto_nuvoloso Molto Nuvoloso 25 14 50 1011 10 SO 14.8
Ieri h: 15:00 coperto Coperto 24 13 50 1011 10 SO 16.7
Ieri h: 14:30 sereno Sereno 25 13 47 1011 10 SO 14.8
Ieri h: 14:00 sereno Sereno 25 13 47 1011 10 SO 13
Ieri h: 13:30 sereno Sereno 24 13 50 1012 10 N 5.5
Ieri h: 13:00 sereno Sereno 24 13 50 1012 10 O/SO 9.3
Ieri h: 12:30 sereno Sereno 23 13 53 1012 10 O/SO 9.3
Ieri h: 12:00 molto_nuvoloso Molto Nuvoloso 22 14 60 1013 10 N 1.8
Ieri h: 11:30 sereno Sereno 20 13 64 1013 10 S/SO 7.4
Ieri h: 11:00 sereno Sereno 21 12 56 1013 10 N 3.7
Ieri h: 10:30 sereno Sereno 20 13 64 1013 10 N 1.8
Ieri h: 10:00 nuvoloso Nuvoloso 20 13 64 1013 10 N 3.7
Ieri h: 09:30 poco_nuvoloso Poco Nuvoloso 18 13 72 1013 10 N 3.7
Ieri h: 09:00 nuvoloso Nuvoloso 17 14 82 1013 10 NE 7.4
Ieri h: 08:30 coperto Coperto 15 13 87 1014 10 E/NE 7.4
Ieri h: 08:00 sereno Sereno 15 13 87 1014 10 N 5.5